sensor_id;sensor_type;location;lat;lon;timestamp;P1;durP1;ratioP1;P2;durP2;ratioP2
63046;SDS011;62025;39.238;9.126;2023-02-26T00:01:49;5.70;;;1.15;;
63046;SDS011;62025;39.238;9.126;2023-02-26T00:04:15;8.82;;;1.60;;
63046;SDS011;62025;39.238;9.126;2023-02-26T00:06:41;7.00;;;1.85;;
63046;SDS011;62025;39.238;9.126;2023-02-26T00:09:16;7.55;;;1.60;;
63046;SDS011;62025;39.238;9.126;2023-02-26T00:11:43;4.50;;;1.30;;
63046;SDS011;62025;39.238;9.126;2023-02-26T00:14:11;5.35;;;1.40;;
63046;SDS011;62025;39.238;9.126;2023-02-26T00:16:40;7.82;;;1.25;;
63046;SDS011;62025;39.238;9.126;2023-02-26T00:19:09;7.97;;;1.25;;
63046;SDS011;62025;39.238;9.126;2023-02-26T00:21:36;6.32;;;1.27;;
63046;SDS011;62025;39.238;9.126;2023-02-26T00:24:03;3.80;;;1.10;;
63046;SDS011;62025;39.238;9.126;2023-02-26T00:26:32;9.00;;;1.52;;
63046;SDS011;62025;39.238;9.126;2023-02-26T00:28:59;5.05;;;1.10;;
63046;SDS011;62025;39.238;9.126;2023-02-26T00:31:27;6.10;;;1.30;;
63046;SDS011;62025;39.238;9.126;2023-02-26T00:33:54;9.70;;;1.38;;
63046;SDS011;62025;39.238;9.126;2023-02-26T00:41:30;4.15;;;1.27;;
63046;SDS011;62025;39.238;9.126;2023-02-26T00:43:56;6.32;;;1.50;;
63046;SDS011;62025;39.238;9.126;2023-02-26T00:46:37;4.65;;;1.15;;
63046;SDS011;62025;39.238;9.126;2023-02-26T00:50:25;5.40;;;1.20;;
63046;SDS011;62025;39.238;9.126;2023-02-26T00:52:38;5.43;;;1.38;;
63046;SDS011;62025;39.238;9.126;2023-02-26T00:55:16;5.20;;;1.13;;
63046;SDS011;62025;39.238;9.126;2023-02-26T00:57:42;4.85;;;1.00;;
63046;SDS011;62025;39.238;9.126;2023-02-26T01:00:08;6.10;;;1.30;;
63046;SDS011;62025;39.238;9.126;2023-02-26T01:02:36;7.70;;;1.50;;
63046;SDS011;62025;39.238;9.126;2023-02-26T01:05:04;5.25;;;1.77;;
63046;SDS011;62025;39.238;9.126;2023-02-26T01:07:37;4.55;;;1.10;;
63046;SDS011;62025;39.238;9.126;2023-02-26T01:10:26;10.20;;;2.10;;
63046;SDS011;62025;39.238;9.126;2023-02-26T01:12:53;3.35;;;1.20;;
63046;SDS011;62025;39.238;9.126;2023-02-26T01:15:21;4.25;;;1.20;;
63046;SDS011;62025;39.238;9.126;2023-02-26T01:20:24;7.68;;;1.77;;
63046;SDS011;62025;39.238;9.126;2023-02-26T01:22:59;6.75;;;1.83;;
63046;SDS011;62025;39.238;9.126;2023-02-26T01:25:39;7.32;;;1.40;;
63046;SDS011;62025;39.238;9.126;2023-02-26T01:28:28;5.82;;;1.75;;
63046;SDS011;62025;39.238;9.126;2023-02-26T01:30:56;7.07;;;1.60;;
63046;SDS011;62025;39.238;9.126;2023-02-26T01:33:46;3.40;;;1.35;;
63046;SDS011;62025;39.238;9.126;2023-02-26T01:36:22;2.33;;;1.30;;
63046;SDS011;62025;39.238;9.126;2023-02-26T01:39:02;3.20;;;1.23;;
63046;SDS011;62025;39.238;9.126;2023-02-26T01:42:21;7.63;;;1.60;;
63046;SDS011;62025;39.238;9.126;2023-02-26T01:47:28;6.47;;;1.35;;
63046;SDS011;62025;39.238;9.126;2023-02-26T01:55:16;3.08;;;1.25;;
63046;SDS011;62025;39.238;9.126;2023-02-26T01:57:52;6.30;;;1.23;;
63046;SDS011;62025;39.238;9.126;2023-02-26T02:00:21;4.68;;;1.45;;
63046;SDS011;62025;39.238;9.126;2023-02-26T02:02:48;3.83;;;1.20;;
63046;SDS011;62025;39.238;9.126;2023-02-26T02:08:06;5.10;;;1.42;;
63046;SDS011;62025;39.238;9.126;2023-02-26T02:10:32;9.48;;;1.70;;
63046;SDS011;62025;39.238;9.126;2023-02-26T02:16:11;4.63;;;1.40;;
63046;SDS011;62025;39.238;9.126;2023-02-26T02:22:30;2.40;;;1.40;;
63046;SDS011;62025;39.238;9.126;2023-02-26T02:31:58;5.47;;;1.90;;
63046;SDS011;62025;39.238;9.126;2023-02-26T02:36:51;3.83;;;1.60;;
63046;SDS011;62025;39.238;9.126;2023-02-26T02:42:20;6.30;;;1.65;;
63046;SDS011;62025;39.238;9.126;2023-02-26T02:44:55;5.85;;;1.02;;
63046;SDS011;62025;39.238;9.126;2023-02-26T02:47:25;6.40;;;1.40;;
63046;SDS011;62025;39.238;9.126;2023-02-26T02:50:01;7.50;;;1.40;;
63046;SDS011;62025;39.238;9.126;2023-02-26T02:53:07;7.03;;;1.83;;
63046;SDS011;62025;39.238;9.126;2023-02-26T02:55:35;3.25;;;1.20;;
63046;SDS011;62025;39.238;9.126;2023-02-26T02:58:12;7.88;;;1.88;;
63046;SDS011;62025;39.238;9.126;2023-02-26T03:00:45;5.53;;;1.90;;
63046;SDS011;62025;39.238;9.126;2023-02-26T03:04:05;5.65;;;1.40;;
63046;SDS011;62025;39.238;9.126;2023-02-26T03:06:32;2.75;;;1.45;;
63046;SDS011;62025;39.238;9.126;2023-02-26T03:09:00;4.15;;;1.35;;
63046;SDS011;62025;39.238;9.126;2023-02-26T03:11:28;6.68;;;1.63;;
63046;SDS011;62025;39.238;9.126;2023-02-26T03:13:56;7.20;;;1.50;;
63046;SDS011;62025;39.238;9.126;2023-02-26T03:16:38;6.07;;;1.42;;
63046;SDS011;62025;39.238;9.126;2023-02-26T03:22:59;4.65;;;1.60;;
63046;SDS011;62025;39.238;9.126;2023-02-26T03:25:52;4.65;;;1.40;;
63046;SDS011;62025;39.238;9.126;2023-02-26T03:28:51;3.47;;;1.58;;
63046;SDS011;62025;39.238;9.126;2023-02-26T03:31:30;7.35;;;1.70;;
63046;SDS011;62025;39.238;9.126;2023-02-26T03:34:08;4.68;;;1.60;;
63046;SDS011;62025;39.238;9.126;2023-02-26T03:37:11;8.27;;;1.80;;
63046;SDS011;62025;39.238;9.126;2023-02-26T03:39:55;5.88;;;1.20;;
63046;SDS011;62025;39.238;9.126;2023-02-26T03:42:32;3.85;;;1.10;;
63046;SDS011;62025;39.238;9.126;2023-02-26T03:47:33;7.05;;;1.50;;
63046;SDS011;62025;39.238;9.126;2023-02-26T03:50:10;4.60;;;1.38;;
63046;SDS011;62025;39.238;9.126;2023-02-26T03:53:06;14.20;;;8.82;;
63046;SDS011;62025;39.238;9.126;2023-02-26T03:56:25;27.35;;;15.98;;
63046;SDS011;62025;39.238;9.126;2023-02-26T03:59:04;28.17;;;18.45;;
63046;SDS011;62025;39.238;9.126;2023-02-26T04:04:53;42.17;;;26.10;;
63046;SDS011;62025;39.238;9.126;2023-02-26T04:07:24;37.88;;;23.73;;
63046;SDS011;62025;39.238;9.126;2023-02-26T04:09:51;33.80;;;22.42;;
63046;SDS011;62025;39.238;9.126;2023-02-26T04:12:20;33.60;;;24.93;;
63046;SDS011;62025;39.238;9.126;2023-02-26T04:14:49;39.08;;;27.17;;
63046;SDS011;62025;39.238;9.126;2023-02-26T04:17:16;40.08;;;26.80;;
63046;SDS011;62025;39.238;9.126;2023-02-26T04:19:43;48.90;;;29.63;;
63046;SDS011;62025;39.238;9.126;2023-02-26T04:22:09;39.95;;;25.17;;
63046;SDS011;62025;39.238;9.126;2023-02-26T04:24:36;32.83;;;22.08;;
63046;SDS011;62025;39.238;9.126;2023-02-26T04:27:02;27.75;;;16.05;;
63046;SDS011;62025;39.238;9.126;2023-02-26T04:29:29;16.35;;;9.80;;
63046;SDS011;62025;39.238;9.126;2023-02-26T04:31:55;14.95;;;7.22;;
63046;SDS011;62025;39.238;9.126;2023-02-26T04:34:21;13.65;;;6.13;;
63046;SDS011;62025;39.238;9.126;2023-02-26T04:36:48;11.43;;;5.07;;
63046;SDS011;62025;39.238;9.126;2023-02-26T04:39:14;9.40;;;4.93;;
63046;SDS011;62025;39.238;9.126;2023-02-26T04:41:40;11.88;;;6.22;;
63046;SDS011;62025;39.238;9.126;2023-02-26T04:44:07;12.43;;;6.40;;
63046;SDS011;62025;39.238;9.126;2023-02-26T04:46:35;11.80;;;6.20;;
63046;SDS011;62025;39.238;9.126;2023-02-26T04:49:01;11.43;;;5.97;;
63046;SDS011;62025;39.238;9.126;2023-02-26T04:51:27;14.23;;;6.78;;
63046;SDS011;62025;39.238;9.126;2023-02-26T04:53:53;17.10;;;8.65;;
63046;SDS011;62025;39.238;9.126;2023-02-26T04:56:19;12.15;;;6.88;;
63046;SDS011;62025;39.238;9.126;2023-02-26T04:58:46;11.35;;;5.90;;
63046;SDS011;62025;39.238;9.126;2023-02-26T05:01:17;10.70;;;5.03;;
63046;SDS011;62025;39.238;9.126;2023-02-26T05:03:43;13.43;;;7.40;;
63046;SDS011;62025;39.238;9.126;2023-02-26T05:06:09;17.75;;;12.35;;
63046;SDS011;62025;39.238;9.126;2023-02-26T05:08:35;26.65;;;16.27;;
63046;SDS011;62025;39.238;9.126;2023-02-26T05:11:06;33.90;;;19.23;;
63046;SDS011;62025;39.238;9.126;2023-02-26T05:13:35;31.25;;;19.88;;
63046;SDS011;62025;39.238;9.126;2023-02-26T05:16:02;28.60;;;19.90;;
63046;SDS011;62025;39.238;9.126;2023-02-26T05:18:28;34.17;;;21.80;;
63046;SDS011;62025;39.238;9.126;2023-02-26T05:20:55;31.30;;;19.92;;
63046;SDS011;62025;39.238;9.126;2023-02-26T05:23:21;31.83;;;19.23;;
63046;SDS011;62025;39.238;9.126;2023-02-26T05:25:48;26.63;;;17.13;;
63046;SDS011;62025;39.238;9.126;2023-02-26T05:28:15;23.45;;;14.60;;
63046;SDS011;62025;39.238;9.126;2023-02-26T05:30:41;27.45;;;15.95;;
63046;SDS011;62025;39.238;9.126;2023-02-26T05:33:07;22.98;;;13.57;;
63046;SDS011;62025;39.238;9.126;2023-02-26T05:35:34;18.63;;;10.68;;
63046;SDS011;62025;39.238;9.126;2023-02-26T05:38:00;17.88;;;8.70;;
63046;SDS011;62025;39.238;9.126;2023-02-26T05:40:25;15.18;;;8.55;;
63046;SDS011;62025;39.238;9.126;2023-02-26T05:42:52;17.67;;;8.93;;
63046;SDS011;62025;39.238;9.126;2023-02-26T05:45:18;12.40;;;8.57;;
63046;SDS011;62025;39.238;9.126;2023-02-26T05:47:44;13.52;;;7.82;;
63046;SDS011;62025;39.238;9.126;2023-02-26T05:50:10;13.23;;;7.68;;
63046;SDS011;62025;39.238;9.126;2023-02-26T05:52:36;15.40;;;6.05;;
63046;SDS011;62025;39.238;9.126;2023-02-26T05:55:03;13.18;;;5.10;;
63046;SDS011;62025;39.238;9.126;2023-02-26T05:57:30;9.73;;;4.95;;
63046;SDS011;62025;39.238;9.126;2023-02-26T05:59:56;8.55;;;3.70;;
63046;SDS011;62025;39.238;9.126;2023-02-26T06:02:22;6.05;;;3.30;;
63046;SDS011;62025;39.238;9.126;2023-02-26T06:04:48;4.30;;;2.53;;
63046;SDS011;62025;39.238;9.126;2023-02-26T06:07:14;8.18;;;2.33;;
63046;SDS011;62025;39.238;9.126;2023-02-26T06:09:40;7.10;;;2.22;;
63046;SDS011;62025;39.238;9.126;2023-02-26T06:12:06;5.07;;;1.90;;
63046;SDS011;62025;39.238;9.126;2023-02-26T06:14:32;8.95;;;2.78;;
63046;SDS011;62025;39.238;9.126;2023-02-26T06:17:00;13.65;;;8.07;;
63046;SDS011;62025;39.238;9.126;2023-02-26T06:19:27;14.40;;;9.55;;
63046;SDS011;62025;39.238;9.126;2023-02-26T06:21:53;12.02;;;8.55;;
63046;SDS011;62025;39.238;9.126;2023-02-26T06:24:19;20.05;;;9.50;;
63046;SDS011;62025;39.238;9.126;2023-02-26T06:26:45;24.65;;;13.93;;
63046;SDS011;62025;39.238;9.126;2023-02-26T06:29:11;24.73;;;15.48;;
63046;SDS011;62025;39.238;9.126;2023-02-26T06:31:37;22.25;;;14.63;;
63046;SDS011;62025;39.238;9.126;2023-02-26T06:34:03;18.10;;;12.35;;
63046;SDS011;62025;39.238;9.126;2023-02-26T06:36:29;20.52;;;11.73;;
63046;SDS011;62025;39.238;9.126;2023-02-26T06:38:55;15.27;;;8.05;;
63046;SDS011;62025;39.238;9.126;2023-02-26T06:41:21;14.90;;;6.70;;
63046;SDS011;62025;39.238;9.126;2023-02-26T06:43:47;12.90;;;5.25;;
63046;SDS011;62025;39.238;9.126;2023-02-26T06:46:13;8.00;;;2.80;;
63046;SDS011;62025;39.238;9.126;2023-02-26T06:48:39;5.90;;;2.25;;
63046;SDS011;62025;39.238;9.126;2023-02-26T06:51:05;5.00;;;2.42;;
63046;SDS011;62025;39.238;9.126;2023-02-26T06:53:31;4.38;;;2.13;;
63046;SDS011;62025;39.238;9.126;2023-02-26T06:55:57;5.22;;;2.25;;
63046;SDS011;62025;39.238;9.126;2023-02-26T06:58:23;5.82;;;1.90;;
63046;SDS011;62025;39.238;9.126;2023-02-26T07:00:49;6.88;;;2.47;;
63046;SDS011;62025;39.238;9.126;2023-02-26T07:03:15;10.30;;;2.45;;
63046;SDS011;62025;39.238;9.126;2023-02-26T07:05:43;5.82;;;1.80;;
63046;SDS011;62025;39.238;9.126;2023-02-26T07:08:10;7.72;;;2.03;;
63046;SDS011;62025;39.238;9.126;2023-02-26T07:10:37;7.20;;;1.98;;
63046;SDS011;62025;39.238;9.126;2023-02-26T07:13:04;8.20;;;2.47;;
63046;SDS011;62025;39.238;9.126;2023-02-26T07:15:31;9.02;;;4.80;;
63046;SDS011;62025;39.238;9.126;2023-02-26T07:17:57;14.75;;;4.68;;
63046;SDS011;62025;39.238;9.126;2023-02-26T07:22:53;17.60;;;6.88;;
63046;SDS011;62025;39.238;9.126;2023-02-26T07:25:19;16.52;;;6.35;;
63046;SDS011;62025;39.238;9.126;2023-02-26T07:27:45;18.73;;;6.82;;
63046;SDS011;62025;39.238;9.126;2023-02-26T07:30:12;19.90;;;9.05;;
63046;SDS011;62025;39.238;9.126;2023-02-26T07:32:38;23.75;;;10.85;;
63046;SDS011;62025;39.238;9.126;2023-02-26T07:35:04;25.42;;;14.13;;
63046;SDS011;62025;39.238;9.126;2023-02-26T07:37:31;24.00;;;14.52;;
63046;SDS011;62025;39.238;9.126;2023-02-26T07:39:57;23.48;;;14.40;;
63046;SDS011;62025;39.238;9.126;2023-02-26T07:42:23;26.40;;;13.88;;
63046;SDS011;62025;39.238;9.126;2023-02-26T07:44:51;22.80;;;12.13;;
63046;SDS011;62025;39.238;9.126;2023-02-26T07:47:17;14.15;;;8.23;;
63046;SDS011;62025;39.238;9.126;2023-02-26T07:49:43;11.35;;;4.40;;
63046;SDS011;62025;39.238;9.126;2023-02-26T07:52:09;7.45;;;2.83;;
63046;SDS011;62025;39.238;9.126;2023-02-26T07:54:35;8.90;;;3.17;;
63046;SDS011;62025;39.238;9.126;2023-02-26T07:57:01;3.67;;;1.80;;
63046;SDS011;62025;39.238;9.126;2023-02-26T07:59:28;4.00;;;1.80;;
63046;SDS011;62025;39.238;9.126;2023-02-26T08:01:54;6.93;;;1.77;;
63046;SDS011;62025;39.238;9.126;2023-02-26T08:04:21;6.03;;;1.92;;
63046;SDS011;62025;39.238;9.126;2023-02-26T08:06:47;4.45;;;1.33;;
63046;SDS011;62025;39.238;9.126;2023-02-26T08:09:13;5.95;;;1.55;;
63046;SDS011;62025;39.238;9.126;2023-02-26T08:11:39;5.50;;;1.55;;
63046;SDS011;62025;39.238;9.126;2023-02-26T08:14:07;3.78;;;1.42;;
63046;SDS011;62025;39.238;9.126;2023-02-26T08:16:35;4.07;;;1.53;;
63046;SDS011;62025;39.238;9.126;2023-02-26T08:19:01;4.70;;;1.65;;
63046;SDS011;62025;39.238;9.126;2023-02-26T08:21:27;6.70;;;1.70;;
63046;SDS011;62025;39.238;9.126;2023-02-26T08:23:53;8.25;;;1.60;;
63046;SDS011;62025;39.238;9.126;2023-02-26T08:26:19;3.40;;;1.40;;
63046;SDS011;62025;39.238;9.126;2023-02-26T08:28:45;10.82;;;1.77;;
63046;SDS011;62025;39.238;9.126;2023-02-26T08:31:12;7.00;;;1.60;;
63046;SDS011;62025;39.238;9.126;2023-02-26T08:33:39;8.88;;;1.50;;
63046;SDS011;62025;39.238;9.126;2023-02-26T08:36:05;4.95;;;1.40;;
63046;SDS011;62025;39.238;9.126;2023-02-26T08:38:32;5.95;;;1.85;;
63046;SDS011;62025;39.238;9.126;2023-02-26T08:40:58;4.30;;;1.60;;
63046;SDS011;62025;39.238;9.126;2023-02-26T08:43:25;4.30;;;1.40;;
63046;SDS011;62025;39.238;9.126;2023-02-26T08:45:51;5.20;;;1.70;;
63046;SDS011;62025;39.238;9.126;2023-02-26T08:48:19;3.57;;;1.27;;
63046;SDS011;62025;39.238;9.126;2023-02-26T08:50:45;4.88;;;2.05;;
63046;SDS011;62025;39.238;9.126;2023-02-26T08:53:12;7.93;;;1.60;;
63046;SDS011;62025;39.238;9.126;2023-02-26T08:55:38;6.72;;;1.58;;
63046;SDS011;62025;39.238;9.126;2023-02-26T08:58:04;6.53;;;1.40;;
63046;SDS011;62025;39.238;9.126;2023-02-26T09:00:32;5.63;;;1.30;;
63046;SDS011;62025;39.238;9.126;2023-02-26T09:02:58;3.17;;;1.10;;
63046;SDS011;62025;39.238;9.126;2023-02-26T09:05:24;2.95;;;1.20;;
63046;SDS011;62025;39.238;9.126;2023-02-26T09:07:51;4.63;;;1.05;;
63046;SDS011;62025;39.238;9.126;2023-02-26T09:10:17;3.92;;;1.20;;
63046;SDS011;62025;39.238;9.126;2023-02-26T09:12:43;1.42;;;1.10;;
63046;SDS011;62025;39.238;9.126;2023-02-26T09:15:11;3.63;;;1.20;;
63046;SDS011;62025;39.238;9.126;2023-02-26T09:17:39;2.97;;;1.20;;
63046;SDS011;62025;39.238;9.126;2023-02-26T09:20:06;3.17;;;1.08;;
63046;SDS011;62025;39.238;9.126;2023-02-26T09:22:33;3.90;;;1.00;;
63046;SDS011;62025;39.238;9.126;2023-02-26T09:25:00;1.38;;;1.00;;
63046;SDS011;62025;39.238;9.126;2023-02-26T09:27:27;3.22;;;1.27;;
63046;SDS011;62025;39.238;9.126;2023-02-26T09:29:53;2.10;;;0.77;;
63046;SDS011;62025;39.238;9.126;2023-02-26T09:32:19;1.23;;;0.90;;
63046;SDS011;62025;39.238;9.126;2023-02-26T09:34:45;2.20;;;1.00;;
63046;SDS011;62025;39.238;9.126;2023-02-26T09:37:11;2.25;;;0.93;;
63046;SDS011;62025;39.238;9.126;2023-02-26T09:39:37;1.17;;;0.85;;
63046;SDS011;62025;39.238;9.126;2023-02-26T09:45:05;0.85;;;0.73;;
63046;SDS011;62025;39.238;9.126;2023-02-26T09:47:45;3.58;;;1.10;;
63046;SDS011;62025;39.238;9.126;2023-02-26T09:55:49;1.52;;;1.00;;
63046;SDS011;62025;39.238;9.126;2023-02-26T09:58:25;4.68;;;1.33;;
63046;SDS011;62025;39.238;9.126;2023-02-26T10:12:48;3.25;;;1.30;;
63046;SDS011;62025;39.238;9.126;2023-02-26T10:18:13;3.97;;;1.13;;
63046;SDS011;62025;39.238;9.126;2023-02-26T10:26:10;2.85;;;0.98;;
63046;SDS011;62025;39.238;9.126;2023-02-26T10:34:57;4.65;;;1.20;;
63046;SDS011;62025;39.238;9.126;2023-02-26T10:37:43;7.03;;;1.00;;
63046;SDS011;62025;39.238;9.126;2023-02-26T10:41:04;5.95;;;1.50;;
63046;SDS011;62025;39.238;9.126;2023-02-26T10:51:56;6.53;;;1.20;;
63046;SDS011;62025;39.238;9.126;2023-02-26T11:00:43;4.15;;;0.93;;
63046;SDS011;62025;39.238;9.126;2023-02-26T11:03:14;9.30;;;1.25;;
63046;SDS011;62025;39.238;9.126;2023-02-26T11:05:46;6.07;;;1.10;;
63046;SDS011;62025;39.238;9.126;2023-02-26T11:08:23;3.78;;;1.10;;
63046;SDS011;62025;39.238;9.126;2023-02-26T11:10:56;4.40;;;1.52;;
63046;SDS011;62025;39.238;9.126;2023-02-26T11:13:26;1.25;;;1.10;;
63046;SDS011;62025;39.238;9.126;2023-02-26T11:15:56;1.88;;;0.70;;
63046;SDS011;62025;39.238;9.126;2023-02-26T11:18:31;0.70;;;0.60;;
63046;SDS011;62025;39.238;9.126;2023-02-26T11:21:21;1.65;;;0.50;;
63046;SDS011;62025;39.238;9.126;2023-02-26T11:23:57;2.55;;;0.40;;
63046;SDS011;62025;39.238;9.126;2023-02-26T11:26:33;1.98;;;0.50;;
63046;SDS011;62025;39.238;9.126;2023-02-26T11:29:01;1.95;;;0.60;;
63046;SDS011;62025;39.238;9.126;2023-02-26T11:31:28;2.10;;;0.60;;
63046;SDS011;62025;39.238;9.126;2023-02-26T11:34:04;3.05;;;0.70;;
63046;SDS011;62025;39.238;9.126;2023-02-26T11:36:36;1.00;;;0.50;;
63046;SDS011;62025;39.238;9.126;2023-02-26T11:39:15;4.07;;;0.60;;
63046;SDS011;62025;39.238;9.126;2023-02-26T11:41:46;0.95;;;0.50;;
63046;SDS011;62025;39.238;9.126;2023-02-26T11:46:55;0.77;;;0.70;;
63046;SDS011;62025;39.238;9.126;2023-02-26T11:49:25;2.22;;;0.60;;
63046;SDS011;62025;39.238;9.126;2023-02-26T11:54:53;2.17;;;1.20;;
63046;SDS011;62025;39.238;9.126;2023-02-26T11:57:42;1.90;;;0.90;;
63046;SDS011;62025;39.238;9.126;2023-02-26T12:00:19;2.10;;;0.80;;
63046;SDS011;62025;39.238;9.126;2023-02-26T12:02:50;1.40;;;0.77;;
63046;SDS011;62025;39.238;9.126;2023-02-26T12:05:21;1.75;;;0.80;;
63046;SDS011;62025;39.238;9.126;2023-02-26T12:07:47;4.18;;;1.40;;
63046;SDS011;62025;39.238;9.126;2023-02-26T12:10:15;2.35;;;1.50;;
63046;SDS011;62025;39.238;9.126;2023-02-26T12:12:56;1.55;;;1.17;;
63046;SDS011;62025;39.238;9.126;2023-02-26T12:15:54;1.92;;;1.05;;
63046;SDS011;62025;39.238;9.126;2023-02-26T12:41:49;1.35;;;1.15;;
63046;SDS011;62025;39.238;9.126;2023-02-26T12:49:59;3.33;;;1.20;;
63046;SDS011;62025;39.238;9.126;2023-02-26T12:55:24;2.83;;;1.00;;
63046;SDS011;62025;39.238;9.126;2023-02-26T13:22:47;4.63;;;1.10;;
63046;SDS011;62025;39.238;9.126;2023-02-26T13:25:32;6.20;;;1.43;;
63046;SDS011;62025;39.238;9.126;2023-02-26T13:28:21;4.72;;;1.10;;
63046;SDS011;62025;39.238;9.126;2023-02-26T13:31:08;6.75;;;1.50;;
63046;SDS011;62025;39.238;9.126;2023-02-26T13:33:49;3.20;;;1.08;;
63046;SDS011;62025;39.238;9.126;2023-02-26T13:36:17;5.00;;;1.20;;
63046;SDS011;62025;39.238;9.126;2023-02-26T13:38:56;7.70;;;1.58;;
63046;SDS011;62025;39.238;9.126;2023-02-26T13:41:34;3.85;;;1.40;;
63046;SDS011;62025;39.238;9.126;2023-02-26T13:44:21;3.83;;;2.08;;
63046;SDS011;62025;39.238;9.126;2023-02-26T13:53:48;6.20;;;1.50;;
63046;SDS011;62025;39.238;9.126;2023-02-26T13:56:12;6.30;;;1.90;;
63046;SDS011;62025;39.238;9.126;2023-02-26T13:58:43;3.10;;;1.23;;
63046;SDS011;62025;39.238;9.126;2023-02-26T14:01:18;4.32;;;1.27;;
63046;SDS011;62025;39.238;9.126;2023-02-26T14:06:50;4.85;;;1.00;;
63046;SDS011;62025;39.238;9.126;2023-02-26T14:14:41;2.30;;;1.20;;
63046;SDS011;62025;39.238;9.126;2023-02-26T14:17:30;2.75;;;0.95;;
63046;SDS011;62025;39.238;9.126;2023-02-26T14:22:41;2.65;;;0.90;;
63046;SDS011;62025;39.238;9.126;2023-02-26T14:28:17;3.42;;;1.20;;
63046;SDS011;62025;39.238;9.126;2023-02-26T14:31:06;1.45;;;0.90;;
63046;SDS011;62025;39.238;9.126;2023-02-26T14:33:38;5.07;;;1.20;;
63046;SDS011;62025;39.238;9.126;2023-02-26T14:36:16;2.67;;;1.33;;
63046;SDS011;62025;39.238;9.126;2023-02-26T14:39:00;2.63;;;1.20;;
63046;SDS011;62025;39.238;9.126;2023-02-26T14:41:33;5.95;;;1.40;;
63046;SDS011;62025;39.238;9.126;2023-02-26T14:46:45;3.42;;;1.30;;
63046;SDS011;62025;39.238;9.126;2023-02-26T14:49:14;3.47;;;1.60;;
63046;SDS011;62025;39.238;9.126;2023-02-26T14:58:35;3.28;;;1.52;;
63046;SDS011;62025;39.238;9.126;2023-02-26T15:15:46;4.22;;;1.00;;
63046;SDS011;62025;39.238;9.126;2023-02-26T15:23:53;5.28;;;1.48;;
63046;SDS011;62025;39.238;9.126;2023-02-26T15:26:22;5.37;;;1.40;;
63046;SDS011;62025;39.238;9.126;2023-02-26T15:28:56;4.05;;;0.88;;
63046;SDS011;62025;39.238;9.126;2023-02-26T15:31:35;1.92;;;0.90;;
63046;SDS011;62025;39.238;9.126;2023-02-26T15:34:08;1.75;;;0.98;;
63046;SDS011;62025;39.238;9.126;2023-02-26T15:36:38;2.60;;;0.80;;
63046;SDS011;62025;39.238;9.126;2023-02-26T15:39:09;1.85;;;0.82;;
63046;SDS011;62025;39.238;9.126;2023-02-26T15:41:40;1.42;;;0.75;;
63046;SDS011;62025;39.238;9.126;2023-02-26T15:44:12;1.20;;;0.90;;
63046;SDS011;62025;39.238;9.126;2023-02-26T15:46:44;1.00;;;0.90;;
63046;SDS011;62025;39.238;9.126;2023-02-26T15:49:15;0.90;;;0.80;;
63046;SDS011;62025;39.238;9.126;2023-02-26T15:51:54;1.02;;;0.70;;
63046;SDS011;62025;39.238;9.126;2023-02-26T15:54:22;1.90;;;0.80;;
63046;SDS011;62025;39.238;9.126;2023-02-26T15:57:00;2.45;;;0.80;;
63046;SDS011;62025;39.238;9.126;2023-02-26T15:59:28;1.83;;;0.80;;
63046;SDS011;62025;39.238;9.126;2023-02-26T16:04:23;3.13;;;1.00;;
63046;SDS011;62025;39.238;9.126;2023-02-26T16:06:53;2.63;;;1.45;;
63046;SDS011;62025;39.238;9.126;2023-02-26T16:09:34;3.20;;;1.30;;
63046;SDS011;62025;39.238;9.126;2023-02-26T16:12:08;2.65;;;0.82;;
63046;SDS011;62025;39.238;9.126;2023-02-26T16:14:42;3.47;;;0.82;;
63046;SDS011;62025;39.238;9.126;2023-02-26T16:17:16;1.80;;;0.82;;
63046;SDS011;62025;39.238;9.126;2023-02-26T16:20:05;2.47;;;0.80;;
63046;SDS011;62025;39.238;9.126;2023-02-26T16:25:24;2.80;;;1.90;;
63046;SDS011;62025;39.238;9.126;2023-02-26T16:28:15;4.05;;;1.98;;
63046;SDS011;62025;39.238;9.126;2023-02-26T16:30:50;3.03;;;1.48;;
63046;SDS011;62025;39.238;9.126;2023-02-26T16:33:21;2.00;;;1.38;;
63046;SDS011;62025;39.238;9.126;2023-02-26T16:35:54;1.73;;;1.25;;
63046;SDS011;62025;39.238;9.126;2023-02-26T16:38:30;2.28;;;1.35;;
63046;SDS011;62025;39.238;9.126;2023-02-26T16:41:12;2.22;;;1.40;;
63046;SDS011;62025;39.238;9.126;2023-02-26T16:46:14;2.08;;;1.38;;
63046;SDS011;62025;39.238;9.126;2023-02-26T16:49:25;3.03;;;1.88;;
63046;SDS011;62025;39.238;9.126;2023-02-26T16:51:58;5.40;;;1.55;;
63046;SDS011;62025;39.238;9.126;2023-02-26T16:54:26;3.63;;;1.90;;
63046;SDS011;62025;39.238;9.126;2023-02-26T16:57:07;3.22;;;1.80;;
63046;SDS011;62025;39.238;9.126;2023-02-26T16:59:50;2.95;;;2.05;;
63046;SDS011;62025;39.238;9.126;2023-02-26T17:02:31;3.03;;;1.85;;
63046;SDS011;62025;39.238;9.126;2023-02-26T17:05:00;6.07;;;1.80;;
63046;SDS011;62025;39.238;9.126;2023-02-26T17:07:45;3.60;;;1.40;;
63046;SDS011;62025;39.238;9.126;2023-02-26T17:10:17;4.75;;;1.83;;
63046;SDS011;62025;39.238;9.126;2023-02-26T17:12:50;5.50;;;1.60;;
63046;SDS011;62025;39.238;9.126;2023-02-26T17:15:19;4.95;;;2.08;;
63046;SDS011;62025;39.238;9.126;2023-02-26T17:17:56;4.60;;;2.03;;
63046;SDS011;62025;39.238;9.126;2023-02-26T17:20:23;2.20;;;1.60;;
63046;SDS011;62025;39.238;9.126;2023-02-26T17:25:19;3.80;;;1.80;;
63046;SDS011;62025;39.238;9.126;2023-02-26T17:27:46;3.08;;;1.63;;
63046;SDS011;62025;39.238;9.126;2023-02-26T17:30:14;1.75;;;1.30;;
63046;SDS011;62025;39.238;9.126;2023-02-26T17:32:43;4.18;;;2.15;;
63046;SDS011;62025;39.238;9.126;2023-02-26T17:35:13;5.53;;;3.08;;
63046;SDS011;62025;39.238;9.126;2023-02-26T17:37:41;4.72;;;2.17;;
63046;SDS011;62025;39.238;9.126;2023-02-26T17:42:47;3.83;;;1.80;;
63046;SDS011;62025;39.238;9.126;2023-02-26T17:45:14;3.55;;;2.80;;
63046;SDS011;62025;39.238;9.126;2023-02-26T17:47:41;11.38;;;6.32;;
63046;SDS011;62025;39.238;9.126;2023-02-26T17:50:14;9.93;;;7.50;;
63046;SDS011;62025;39.238;9.126;2023-02-26T17:55:33;11.93;;;7.32;;
63046;SDS011;62025;39.238;9.126;2023-02-26T17:58:03;11.15;;;7.32;;
63046;SDS011;62025;39.238;9.126;2023-02-26T18:00:32;9.43;;;6.82;;
63046;SDS011;62025;39.238;9.126;2023-02-26T18:03:03;9.88;;;7.20;;
63046;SDS011;62025;39.238;9.126;2023-02-26T18:05:29;8.80;;;6.93;;
63046;SDS011;62025;39.238;9.126;2023-02-26T18:08:00;8.90;;;6.97;;
63046;SDS011;62025;39.238;9.126;2023-02-26T18:10:26;10.70;;;7.35;;
63046;SDS011;62025;39.238;9.126;2023-02-26T18:12:52;12.82;;;6.97;;
63046;SDS011;62025;39.238;9.126;2023-02-26T18:15:18;13.45;;;6.55;;
63046;SDS011;62025;39.238;9.126;2023-02-26T18:17:44;12.38;;;6.68;;
63046;SDS011;62025;39.238;9.126;2023-02-26T18:20:15;8.57;;;6.40;;
63046;SDS011;62025;39.238;9.126;2023-02-26T18:22:46;7.60;;;6.28;;
63046;SDS011;62025;39.238;9.126;2023-02-26T18:25:15;12.48;;;9.55;;
63046;SDS011;62025;39.238;9.126;2023-02-26T18:27:42;15.52;;;11.45;;
63046;SDS011;62025;39.238;9.126;2023-02-26T18:30:31;14.07;;;10.88;;
63046;SDS011;62025;39.238;9.126;2023-02-26T18:32:57;18.42;;;13.80;;
63046;SDS011;62025;39.238;9.126;2023-02-26T18:35:24;19.38;;;14.60;;
63046;SDS011;62025;39.238;9.126;2023-02-26T18:40:20;18.50;;;13.63;;
63046;SDS011;62025;39.238;9.126;2023-02-26T18:42:49;19.80;;;13.40;;
63046;SDS011;62025;39.238;9.126;2023-02-26T18:45:16;16.83;;;13.77;;
63046;SDS011;62025;39.238;9.126;2023-02-26T18:47:43;18.77;;;13.65;;
63046;SDS011;62025;39.238;9.126;2023-02-26T18:50:11;19.88;;;14.45;;
63046;SDS011;62025;39.238;9.126;2023-02-26T18:52:40;17.98;;;13.40;;
63046;SDS011;62025;39.238;9.126;2023-02-26T18:55:08;20.25;;;14.55;;
63046;SDS011;62025;39.238;9.126;2023-02-26T18:57:38;22.30;;;16.80;;
63046;SDS011;62025;39.238;9.126;2023-02-26T19:00:07;21.17;;;15.25;;